sensor_id;sensor_type;location;lat;lon;timestamp;P1;durP1;ratioP1;P2;durP2;ratioP2
37097;SDS011;63608;49.572;12.348;2022-12-07T00:00:26;7.37;;;6.67;;
37097;SDS011;63608;49.572;12.348;2022-12-07T00:02:29;7.53;;;6.83;;
37097;SDS011;63608;49.572;12.348;2022-12-07T00:04:36;7.93;;;6.90;;
37097;SDS011;63608;49.572;12.348;2022-12-07T00:06:39;7.00;;;6.30;;
37097;SDS011;63608;49.572;12.348;2022-12-07T00:08:55;7.70;;;7.00;;
37097;SDS011;63608;49.572;12.348;2022-12-07T00:11:00;7.53;;;6.83;;
37097;SDS011;63608;49.572;12.348;2022-12-07T00:13:03;7.50;;;6.80;;
37097;SDS011;63608;49.572;12.348;2022-12-07T00:15:09;6.20;;;5.70;;
37097;SDS011;63608;49.572;12.348;2022-12-07T00:17:12;7.40;;;6.70;;
37097;SDS011;63608;49.572;12.348;2022-12-07T00:19:18;6.80;;;6.20;;
37097;SDS011;63608;49.572;12.348;2022-12-07T00:21:24;6.70;;;6.10;;
37097;SDS011;63608;49.572;12.348;2022-12-07T00:23:29;6.77;;;6.17;;
37097;SDS011;63608;49.572;12.348;2022-12-07T00:25:31;6.93;;;6.33;;
37097;SDS011;63608;49.572;12.348;2022-12-07T00:27:33;6.53;;;6.03;;
37097;SDS011;63608;49.572;12.348;2022-12-07T00:29:36;7.10;;;6.50;;
37097;SDS011;63608;49.572;12.348;2022-12-07T00:31:42;7.33;;;6.63;;
37097;SDS011;63608;49.572;12.348;2022-12-07T00:33:44;7.67;;;6.87;;
37097;SDS011;63608;49.572;12.348;2022-12-07T00:35:54;7.50;;;6.80;;
37097;SDS011;63608;49.572;12.348;2022-12-07T00:37:59;7.47;;;6.70;;
37097;SDS011;63608;49.572;12.348;2022-12-07T00:40:04;7.63;;;6.83;;
37097;SDS011;63608;49.572;12.348;2022-12-07T00:42:08;7.40;;;6.37;;
37097;SDS011;63608;49.572;12.348;2022-12-07T00:44:11;7.43;;;6.53;;
37097;SDS011;63608;49.572;12.348;2022-12-07T00:46:14;5.53;;;5.13;;
37097;SDS011;63608;49.572;12.348;2022-12-07T00:48:17;5.97;;;5.47;;
37097;SDS011;63608;49.572;12.348;2022-12-07T00:50:19;5.83;;;5.40;;
37097;SDS011;63608;49.572;12.348;2022-12-07T00:52:22;5.57;;;5.07;;
37097;SDS011;63608;49.572;12.348;2022-12-07T00:54:29;6.80;;;6.20;;
37097;SDS011;63608;49.572;12.348;2022-12-07T00:56:33;7.73;;;6.53;;
37097;SDS011;63608;49.572;12.348;2022-12-07T00:58:36;6.50;;;6.00;;
37097;SDS011;63608;49.572;12.348;2022-12-07T01:00:40;6.53;;;6.03;;
37097;SDS011;63608;49.572;12.348;2022-12-07T01:02:43;6.90;;;6.30;;
37097;SDS011;63608;49.572;12.348;2022-12-07T01:04:45;6.50;;;6.00;;
37097;SDS011;63608;49.572;12.348;2022-12-07T01:06:50;6.13;;;5.63;;
37097;SDS011;63608;49.572;12.348;2022-12-07T01:08:53;6.53;;;6.03;;
37097;SDS011;63608;49.572;12.348;2022-12-07T01:11:02;6.20;;;5.70;;
37097;SDS011;63608;49.572;12.348;2022-12-07T01:13:10;7.00;;;6.30;;
37097;SDS011;63608;49.572;12.348;2022-12-07T01:15:14;6.20;;;5.70;;
37097;SDS011;63608;49.572;12.348;2022-12-07T01:17:17;5.40;;;5.00;;
37097;SDS011;63608;49.572;12.348;2022-12-07T01:19:22;7.10;;;6.50;;
37097;SDS011;63608;49.572;12.348;2022-12-07T01:21:25;6.83;;;6.23;;
37097;SDS011;63608;49.572;12.348;2022-12-07T01:23:30;6.37;;;5.80;;
37097;SDS011;63608;49.572;12.348;2022-12-07T01:25:36;6.07;;;5.63;;
37097;SDS011;63608;49.572;12.348;2022-12-07T01:27:40;5.87;;;5.43;;
37097;SDS011;63608;49.572;12.348;2022-12-07T01:29:42;6.60;;;6.10;;
37097;SDS011;63608;49.572;12.348;2022-12-07T01:31:47;5.87;;;5.47;;
37097;SDS011;63608;49.572;12.348;2022-12-07T01:33:51;7.30;;;6.60;;
37097;SDS011;63608;49.572;12.348;2022-12-07T01:36:00;6.43;;;5.93;;
37097;SDS011;63608;49.572;12.348;2022-12-07T01:38:05;6.67;;;6.17;;
37097;SDS011;63608;49.572;12.348;2022-12-07T01:40:11;7.23;;;6.53;;
37097;SDS011;63608;49.572;12.348;2022-12-07T01:42:13;7.20;;;6.50;;
37097;SDS011;63608;49.572;12.348;2022-12-07T01:44:19;8.03;;;7.23;;
37097;SDS011;63608;49.572;12.348;2022-12-07T01:46:23;7.77;;;7.07;;
37097;SDS011;63608;49.572;12.348;2022-12-07T01:48:27;8.17;;;7.30;;
37097;SDS011;63608;49.572;12.348;2022-12-07T01:50:32;9.50;;;8.50;;
37097;SDS011;63608;49.572;12.348;2022-12-07T01:52:35;10.53;;;8.50;;
37097;SDS011;63608;49.572;12.348;2022-12-07T01:54:37;9.70;;;7.23;;
37097;SDS011;63608;49.572;12.348;2022-12-07T01:56:40;8.80;;;7.90;;
37097;SDS011;63608;49.572;12.348;2022-12-07T01:58:45;9.03;;;8.13;;
37097;SDS011;63608;49.572;12.348;2022-12-07T02:00:49;7.63;;;6.97;;
37097;SDS011;63608;49.572;12.348;2022-12-07T02:02:57;8.13;;;7.33;;
37097;SDS011;63608;49.572;12.348;2022-12-07T02:05:04;8.87;;;7.97;;
37097;SDS011;63608;49.572;12.348;2022-12-07T02:07:11;9.60;;;8.33;;
37097;SDS011;63608;49.572;12.348;2022-12-07T02:09:14;8.70;;;7.90;;
37097;SDS011;63608;49.572;12.348;2022-12-07T02:11:17;11.83;;;9.30;;
37097;SDS011;63608;49.572;12.348;2022-12-07T02:13:35;9.17;;;8.20;;
37097;SDS011;63608;49.572;12.348;2022-12-07T02:15:41;11.03;;;9.03;;
37097;SDS011;63608;49.572;12.348;2022-12-07T02:17:55;9.07;;;8.13;;
37097;SDS011;63608;49.572;12.348;2022-12-07T02:20:14;8.70;;;7.90;;
37097;SDS011;63608;49.572;12.348;2022-12-07T02:22:26;9.47;;;8.50;;
37097;SDS011;63608;49.572;12.348;2022-12-07T02:24:47;11.47;;;9.57;;
37097;SDS011;63608;49.572;12.348;2022-12-07T02:26:55;11.20;;;9.30;;
37097;SDS011;63608;49.572;12.348;2022-12-07T02:29:29;9.30;;;8.40;;
37097;SDS011;63608;49.572;12.348;2022-12-07T02:31:35;9.30;;;8.33;;
37097;SDS011;63608;49.572;12.348;2022-12-07T02:33:40;9.60;;;8.60;;
37097;SDS011;63608;49.572;12.348;2022-12-07T02:35:46;10.30;;;9.27;;
37097;SDS011;63608;49.572;12.348;2022-12-07T02:37:54;10.33;;;9.23;;
37097;SDS011;63608;49.572;12.348;2022-12-07T02:40:03;10.10;;;8.80;;
37097;SDS011;63608;49.572;12.348;2022-12-07T02:42:14;11.83;;;9.60;;
37097;SDS011;63608;49.572;12.348;2022-12-07T02:44:20;10.50;;;8.90;;
37097;SDS011;63608;49.572;12.348;2022-12-07T02:46:28;10.20;;;8.60;;
37097;SDS011;63608;49.572;12.348;2022-12-07T02:48:33;10.60;;;9.03;;
37097;SDS011;63608;49.572;12.348;2022-12-07T02:50:36;6.80;;;6.20;;
37097;SDS011;63608;49.572;12.348;2022-12-07T02:52:38;6.67;;;6.07;;
37097;SDS011;63608;49.572;12.348;2022-12-07T02:54:43;7.63;;;6.30;;
37097;SDS011;63608;49.572;12.348;2022-12-07T02:56:46;6.43;;;5.83;;
37097;SDS011;63608;49.572;12.348;2022-12-07T02:58:54;6.03;;;5.47;;
37097;SDS011;63608;49.572;12.348;2022-12-07T03:01:07;6.60;;;5.90;;
37097;SDS011;63608;49.572;12.348;2022-12-07T03:03:14;7.30;;;5.90;;
37097;SDS011;63608;49.572;12.348;2022-12-07T03:07:56;7.10;;;5.77;;
37097;SDS011;63608;49.572;12.348;2022-12-07T03:10:07;6.23;;;5.63;;
37097;SDS011;63608;49.572;12.348;2022-12-07T03:12:12;6.43;;;5.60;;
37097;SDS011;63608;49.572;12.348;2022-12-07T03:14:21;5.60;;;5.20;;
37097;SDS011;63608;49.572;12.348;2022-12-07T03:16:33;5.17;;;4.67;;
37097;SDS011;63608;49.572;12.348;2022-12-07T03:18:41;6.70;;;6.07;;
37097;SDS011;63608;49.572;12.348;2022-12-07T03:20:48;6.10;;;5.40;;
37097;SDS011;63608;49.572;12.348;2022-12-07T03:22:52;6.23;;;5.60;;
37097;SDS011;63608;49.572;12.348;2022-12-07T03:24:58;7.00;;;6.30;;
37097;SDS011;63608;49.572;12.348;2022-12-07T03:27:03;6.90;;;6.20;;
37097;SDS011;63608;49.572;12.348;2022-12-07T03:29:09;6.83;;;6.13;;
37097;SDS011;63608;49.572;12.348;2022-12-07T03:31:16;5.83;;;5.33;;
37097;SDS011;63608;49.572;12.348;2022-12-07T03:33:22;6.53;;;5.83;;
37097;SDS011;63608;49.572;12.348;2022-12-07T03:35:28;8.07;;;6.80;;
37097;SDS011;63608;49.572;12.348;2022-12-07T03:37:34;6.73;;;6.10;;
37097;SDS011;63608;49.572;12.348;2022-12-07T03:39:44;8.17;;;7.10;;
37097;SDS011;63608;49.572;12.348;2022-12-07T03:41:52;7.53;;;6.83;;
37097;SDS011;63608;49.572;12.348;2022-12-07T03:43:57;7.53;;;6.73;;
37097;SDS011;63608;49.572;12.348;2022-12-07T03:46:06;8.87;;;7.23;;
37097;SDS011;63608;49.572;12.348;2022-12-07T03:50:52;10.00;;;8.10;;
37097;SDS011;63608;49.572;12.348;2022-12-07T03:53:15;12.00;;;9.40;;
37097;SDS011;63608;49.572;12.348;2022-12-07T03:55:22;12.93;;;10.70;;
37097;SDS011;63608;49.572;12.348;2022-12-07T03:57:29;12.67;;;10.03;;
37097;SDS011;63608;49.572;12.348;2022-12-07T03:59:34;13.80;;;11.10;;
37097;SDS011;63608;49.572;12.348;2022-12-07T04:01:38;15.30;;;11.50;;
37097;SDS011;63608;49.572;12.348;2022-12-07T04:03:41;15.20;;;11.80;;
37097;SDS011;63608;49.572;12.348;2022-12-07T04:05:44;14.17;;;11.63;;
37097;SDS011;63608;49.572;12.348;2022-12-07T04:07:49;17.33;;;12.87;;
37097;SDS011;63608;49.572;12.348;2022-12-07T04:09:51;17.17;;;12.67;;
37097;SDS011;63608;49.572;12.348;2022-12-07T04:11:57;16.10;;;12.57;;
37097;SDS011;63608;49.572;12.348;2022-12-07T04:14:00;17.30;;;12.93;;
37097;SDS011;63608;49.572;12.348;2022-12-07T04:16:20;18.97;;;13.60;;
37097;SDS011;63608;49.572;12.348;2022-12-07T04:18:26;15.37;;;11.90;;
37097;SDS011;63608;49.572;12.348;2022-12-07T04:20:31;19.70;;;14.50;;
37097;SDS011;63608;49.572;12.348;2022-12-07T04:22:34;14.57;;;12.37;;
37097;SDS011;63608;49.572;12.348;2022-12-07T04:24:38;16.37;;;13.03;;
37097;SDS011;63608;49.572;12.348;2022-12-07T04:26:41;21.07;;;14.53;;
37097;SDS011;63608;49.572;12.348;2022-12-07T04:28:45;18.63;;;13.70;;
37097;SDS011;63608;49.572;12.348;2022-12-07T04:30:47;16.27;;;13.60;;
37097;SDS011;63608;49.572;12.348;2022-12-07T04:32:50;19.20;;;14.23;;
37097;SDS011;63608;49.572;12.348;2022-12-07T04:34:52;19.03;;;13.80;;
37097;SDS011;63608;49.572;12.348;2022-12-07T04:36:58;17.97;;;13.43;;
37097;SDS011;63608;49.572;12.348;2022-12-07T04:39:01;14.87;;;12.47;;
37097;SDS011;63608;49.572;12.348;2022-12-07T04:41:07;17.13;;;13.57;;
37097;SDS011;63608;49.572;12.348;2022-12-07T04:43:11;16.93;;;13.10;;
37097;SDS011;63608;49.572;12.348;2022-12-07T04:45:14;17.90;;;13.80;;
37097;SDS011;63608;49.572;12.348;2022-12-07T04:47:18;16.57;;;13.57;;
37097;SDS011;63608;49.572;12.348;2022-12-07T04:49:21;18.17;;;13.60;;
37097;SDS011;63608;49.572;12.348;2022-12-07T04:51:26;19.87;;;14.47;;
37097;SDS011;63608;49.572;12.348;2022-12-07T04:53:46;16.90;;;12.87;;
37097;SDS011;63608;49.572;12.348;2022-12-07T04:55:48;19.40;;;13.90;;
37097;SDS011;63608;49.572;12.348;2022-12-07T04:57:53;20.53;;;15.07;;
37097;SDS011;63608;49.572;12.348;2022-12-07T04:59:59;19.57;;;14.27;;
37097;SDS011;63608;49.572;12.348;2022-12-07T05:02:01;17.53;;;13.90;;
37097;SDS011;63608;49.572;12.348;2022-12-07T05:04:04;18.27;;;14.07;;
37097;SDS011;63608;49.572;12.348;2022-12-07T05:06:07;20.93;;;14.87;;
37097;SDS011;63608;49.572;12.348;2022-12-07T05:08:11;17.10;;;13.40;;
37097;SDS011;63608;49.572;12.348;2022-12-07T05:10:13;18.20;;;13.93;;
37097;SDS011;63608;49.572;12.348;2022-12-07T05:12:19;22.43;;;14.90;;
37097;SDS011;63608;49.572;12.348;2022-12-07T05:14:25;17.90;;;13.90;;
37097;SDS011;63608;49.572;12.348;2022-12-07T05:16:28;22.30;;;15.30;;
37097;SDS011;63608;49.572;12.348;2022-12-07T05:18:31;20.97;;;14.93;;
37097;SDS011;63608;49.572;12.348;2022-12-07T05:20:34;20.20;;;15.73;;
37097;SDS011;63608;49.572;12.348;2022-12-07T05:22:36;20.53;;;15.33;;
37097;SDS011;63608;49.572;12.348;2022-12-07T05:24:38;19.83;;;14.40;;
37097;SDS011;63608;49.572;12.348;2022-12-07T05:26:41;20.80;;;15.00;;
37097;SDS011;63608;49.572;12.348;2022-12-07T05:28:49;20.77;;;14.90;;
37097;SDS011;63608;49.572;12.348;2022-12-07T05:31:11;22.33;;;15.90;;
37097;SDS011;63608;49.572;12.348;2022-12-07T05:33:14;19.40;;;14.87;;
37097;SDS011;63608;49.572;12.348;2022-12-07T05:35:18;24.80;;;18.57;;
37097;SDS011;63608;49.572;12.348;2022-12-07T05:37:20;56.53;;;35.17;;
37097;SDS011;63608;49.572;12.348;2022-12-07T05:39:23;19.30;;;15.50;;
37097;SDS011;63608;49.572;12.348;2022-12-07T05:41:26;27.10;;;20.90;;
37097;SDS011;63608;49.572;12.348;2022-12-07T05:43:46;27.13;;;19.93;;
37097;SDS011;63608;49.572;12.348;2022-12-07T05:45:49;21.40;;;16.50;;
37097;SDS011;63608;49.572;12.348;2022-12-07T05:47:54;22.60;;;17.17;;
37097;SDS011;63608;49.572;12.348;2022-12-07T05:49:59;19.17;;;14.80;;
37097;SDS011;63608;49.572;12.348;2022-12-07T05:52:01;19.20;;;14.03;;
37097;SDS011;63608;49.572;12.348;2022-12-07T05:54:04;19.90;;;15.10;;
37097;SDS011;63608;49.572;12.348;2022-12-07T05:56:26;22.50;;;15.30;;
37097;SDS011;63608;49.572;12.348;2022-12-07T05:58:28;19.70;;;14.70;;
37097;SDS011;63608;49.572;12.348;2022-12-07T06:00:48;17.17;;;13.73;;
37097;SDS011;63608;49.572;12.348;2022-12-07T06:02:50;16.77;;;12.83;;
37097;SDS011;63608;49.572;12.348;2022-12-07T06:04:55;18.30;;;13.87;;
37097;SDS011;63608;49.572;12.348;2022-12-07T06:06:57;14.10;;;12.00;;
37097;SDS011;63608;49.572;12.348;2022-12-07T06:09:00;17.27;;;13.53;;
37097;SDS011;63608;49.572;12.348;2022-12-07T06:11:06;16.37;;;12.73;;
37097;SDS011;63608;49.572;12.348;2022-12-07T06:13:37;15.40;;;12.93;;
37097;SDS011;63608;49.572;12.348;2022-12-07T06:15:44;20.37;;;14.20;;
37097;SDS011;63608;49.572;12.348;2022-12-07T06:17:49;16.50;;;13.20;;
37097;SDS011;63608;49.572;12.348;2022-12-07T06:19:55;14.27;;;11.70;;
37097;SDS011;63608;49.572;12.348;2022-12-07T06:21:57;16.27;;;11.83;;
37097;SDS011;63608;49.572;12.348;2022-12-07T06:24:00;15.10;;;12.23;;
37097;SDS011;63608;49.572;12.348;2022-12-07T06:26:03;16.53;;;12.97;;
37097;SDS011;63608;49.572;12.348;2022-12-07T06:28:06;18.33;;;13.63;;
37097;SDS011;63608;49.572;12.348;2022-12-07T06:30:10;17.30;;;13.63;;
37097;SDS011;63608;49.572;12.348;2022-12-07T06:32:13;16.23;;;12.60;;
37097;SDS011;63608;49.572;12.348;2022-12-07T06:34:19;16.87;;;12.63;;
37097;SDS011;63608;49.572;12.348;2022-12-07T06:36:25;17.50;;;13.23;;
37097;SDS011;63608;49.572;12.348;2022-12-07T06:38:43;17.33;;;13.80;;
37097;SDS011;63608;49.572;12.348;2022-12-07T06:40:47;19.53;;;13.93;;
37097;SDS011;63608;49.572;12.348;2022-12-07T06:42:51;21.00;;;15.10;;
37097;SDS011;63608;49.572;12.348;2022-12-07T06:44:55;17.10;;;13.50;;
37097;SDS011;63608;49.572;12.348;2022-12-07T06:46:59;20.70;;;15.53;;
37097;SDS011;63608;49.572;12.348;2022-12-07T06:49:07;21.20;;;15.33;;
37097;SDS011;63608;49.572;12.348;2022-12-07T06:51:10;20.70;;;14.97;;
37097;SDS011;63608;49.572;12.348;2022-12-07T06:53:16;21.10;;;15.10;;
37097;SDS011;63608;49.572;12.348;2022-12-07T06:55:19;22.53;;;15.23;;
37097;SDS011;63608;49.572;12.348;2022-12-07T06:57:21;18.87;;;13.67;;
37097;SDS011;63608;49.572;12.348;2022-12-07T06:59:23;21.10;;;15.23;;
37097;SDS011;63608;49.572;12.348;2022-12-07T07:01:29;21.77;;;14.57;;
37097;SDS011;63608;49.572;12.348;2022-12-07T07:03:36;22.20;;;15.73;;
37097;SDS011;63608;49.572;12.348;2022-12-07T07:05:39;20.63;;;14.37;;
37097;SDS011;63608;49.572;12.348;2022-12-07T07:07:42;25.33;;;16.10;;
37097;SDS011;63608;49.572;12.348;2022-12-07T07:09:51;23.60;;;15.37;;
37097;SDS011;63608;49.572;12.348;2022-12-07T07:11:53;21.43;;;15.00;;
37097;SDS011;63608;49.572;12.348;2022-12-07T07:13:55;20.07;;;14.93;;
37097;SDS011;63608;49.572;12.348;2022-12-07T07:16:02;20.30;;;14.60;;
37097;SDS011;63608;49.572;12.348;2022-12-07T07:18:05;20.60;;;14.90;;
37097;SDS011;63608;49.572;12.348;2022-12-07T07:20:09;23.70;;;15.57;;
37097;SDS011;63608;49.572;12.348;2022-12-07T07:22:13;20.17;;;15.00;;
37097;SDS011;63608;49.572;12.348;2022-12-07T07:24:18;24.53;;;16.57;;
37097;SDS011;63608;49.572;12.348;2022-12-07T07:26:26;20.03;;;14.17;;
37097;SDS011;63608;49.572;12.348;2022-12-07T07:28:30;20.90;;;14.50;;
37097;SDS011;63608;49.572;12.348;2022-12-07T07:30:35;22.57;;;15.20;;
37097;SDS011;63608;49.572;12.348;2022-12-07T07:32:38;22.93;;;15.20;;
37097;SDS011;63608;49.572;12.348;2022-12-07T07:34:40;22.50;;;15.90;;
37097;SDS011;63608;49.572;12.348;2022-12-07T07:36:46;24.60;;;16.33;;
37097;SDS011;63608;49.572;12.348;2022-12-07T07:38:48;21.63;;;15.20;;
37097;SDS011;63608;49.572;12.348;2022-12-07T07:40:51;25.33;;;16.10;;
37097;SDS011;63608;49.572;12.348;2022-12-07T07:42:56;22.67;;;15.57;;
37097;SDS011;63608;49.572;12.348;2022-12-07T07:44:59;17.97;;;12.90;;
37097;SDS011;63608;49.572;12.348;2022-12-07T07:47:04;20.93;;;14.17;;
37097;SDS011;63608;49.572;12.348;2022-12-07T07:49:08;20.43;;;15.03;;
37097;SDS011;63608;49.572;12.348;2022-12-07T07:51:11;21.60;;;14.33;;
37097;SDS011;63608;49.572;12.348;2022-12-07T07:53:15;20.37;;;14.30;;
37097;SDS011;63608;49.572;12.348;2022-12-07T07:55:25;22.40;;;15.17;;
37097;SDS011;63608;49.572;12.348;2022-12-07T07:57:28;22.30;;;14.77;;
37097;SDS011;63608;49.572;12.348;2022-12-07T07:59:33;19.27;;;14.30;;
37097;SDS011;63608;49.572;12.348;2022-12-07T08:01:36;19.47;;;13.90;;
37097;SDS011;63608;49.572;12.348;2022-12-07T08:03:38;22.10;;;14.90;;
37097;SDS011;63608;49.572;12.348;2022-12-07T08:05:42;19.67;;;13.60;;
37097;SDS011;63608;49.572;12.348;2022-12-07T08:07:45;19.20;;;13.20;;
37097;SDS011;63608;49.572;12.348;2022-12-07T08:09:48;19.97;;;13.67;;
37097;SDS011;63608;49.572;12.348;2022-12-07T08:11:50;22.27;;;15.10;;
37097;SDS011;63608;49.572;12.348;2022-12-07T08:13:52;20.80;;;15.07;;
37097;SDS011;63608;49.572;12.348;2022-12-07T08:15:58;21.03;;;14.23;;
37097;SDS011;63608;49.572;12.348;2022-12-07T08:18:01;20.60;;;15.00;;
37097;SDS011;63608;49.572;12.348;2022-12-07T08:20:04;17.90;;;12.90;;
37097;SDS011;63608;49.572;12.348;2022-12-07T08:22:11;20.47;;;14.30;;
37097;SDS011;63608;49.572;12.348;2022-12-07T08:24:15;21.00;;;15.27;;
37097;SDS011;63608;49.572;12.348;2022-12-07T08:26:19;18.47;;;13.17;;
37097;SDS011;63608;49.572;12.348;2022-12-07T08:28:25;18.97;;;13.33;;
37097;SDS011;63608;49.572;12.348;2022-12-07T08:30:28;19.53;;;13.57;;
37097;SDS011;63608;49.572;12.348;2022-12-07T08:32:34;17.47;;;12.83;;
37097;SDS011;63608;49.572;12.348;2022-12-07T08:34:37;18.70;;;13.90;;
37097;SDS011;63608;49.572;12.348;2022-12-07T08:36:42;22.80;;;14.60;;
37097;SDS011;63608;49.572;12.348;2022-12-07T08:38:45;17.17;;;13.30;;
37097;SDS011;63608;49.572;12.348;2022-12-07T08:40:53;18.90;;;13.40;;
37097;SDS011;63608;49.572;12.348;2022-12-07T08:42:57;18.80;;;14.07;;
37097;SDS011;63608;49.572;12.348;2022-12-07T08:44:59;18.27;;;12.77;;
37097;SDS011;63608;49.572;12.348;2022-12-07T08:47:02;17.43;;;12.40;;
37097;SDS011;63608;49.572;12.348;2022-12-07T08:49:12;18.93;;;13.27;;
37097;SDS011;63608;49.572;12.348;2022-12-07T08:51:15;16.43;;;12.80;;
37097;SDS011;63608;49.572;12.348;2022-12-07T08:53:28;16.53;;;12.90;;
37097;SDS011;63608;49.572;12.348;2022-12-07T08:55:43;18.60;;;12.50;;
37097;SDS011;63608;49.572;12.348;2022-12-07T08:57:48;16.70;;;12.63;;
37097;SDS011;63608;49.572;12.348;2022-12-07T08:59:54;18.07;;;12.60;;
37097;SDS011;63608;49.572;12.348;2022-12-07T09:01:57;17.80;;;12.03;;
37097;SDS011;63608;49.572;12.348;2022-12-07T09:03:59;19.53;;;13.80;;
37097;SDS011;63608;49.572;12.348;2022-12-07T09:06:04;19.00;;;13.20;;
37097;SDS011;63608;49.572;12.348;2022-12-07T09:08:07;19.43;;;13.90;;
37097;SDS011;63608;49.572;12.348;2022-12-07T09:10:10;18.03;;;12.90;;
37097;SDS011;63608;49.572;12.348;2022-12-07T09:12:13;14.57;;;11.47;;
37097;SDS011;63608;49.572;12.348;2022-12-07T09:14:19;16.80;;;12.83;;
37097;SDS011;63608;49.572;12.348;2022-12-07T09:16:24;18.63;;;12.30;;
37097;SDS011;63608;49.572;12.348;2022-12-07T09:18:27;18.07;;;12.33;;
37097;SDS011;63608;49.572;12.348;2022-12-07T09:20:30;20.50;;;15.10;;
37097;SDS011;63608;49.572;12.348;2022-12-07T09:22:34;19.67;;;13.33;;
37097;SDS011;63608;49.572;12.348;2022-12-07T09:24:36;16.60;;;12.47;;
37097;SDS011;63608;49.572;12.348;2022-12-07T09:26:39;18.77;;;12.10;;
37097;SDS011;63608;49.572;12.348;2022-12-07T09:28:42;16.90;;;12.30;;
37097;SDS011;63608;49.572;12.348;2022-12-07T09:30:46;17.27;;;11.80;;
37097;SDS011;63608;49.572;12.348;2022-12-07T09:32:49;18.20;;;12.67;;
37097;SDS011;63608;49.572;12.348;2022-12-07T09:34:52;16.87;;;12.40;;
37097;SDS011;63608;49.572;12.348;2022-12-07T09:36:54;19.20;;;13.47;;
37097;SDS011;63608;49.572;12.348;2022-12-07T09:39:03;15.77;;;11.23;;
37097;SDS011;63608;49.572;12.348;2022-12-07T09:41:06;18.07;;;12.63;;
37097;SDS011;63608;49.572;12.348;2022-12-07T09:43:11;17.73;;;12.77;;
37097;SDS011;63608;49.572;12.348;2022-12-07T09:45:16;20.40;;;12.40;;
37097;SDS011;63608;49.572;12.348;2022-12-07T09:47:23;16.53;;;12.17;;
37097;SDS011;63608;49.572;12.348;2022-12-07T09:49:28;19.00;;;13.00;;
37097;SDS011;63608;49.572;12.348;2022-12-07T09:51:37;19.30;;;13.07;;
37097;SDS011;63608;49.572;12.348;2022-12-07T09:53:39;19.20;;;12.30;;
37097;SDS011;63608;49.572;12.348;2022-12-07T09:55:43;19.90;;;13.37;;
37097;SDS011;63608;49.572;12.348;2022-12-07T09:57:46;18.90;;;13.20;;
37097;SDS011;63608;49.572;12.348;2022-12-07T09:59:51;21.00;;;13.23;;
37097;SDS011;63608;49.572;12.348;2022-12-07T10:01:54;20.60;;;13.20;;
37097;SDS011;63608;49.572;12.348;2022-12-07T10:04:01;20.23;;;12.63;;
37097;SDS011;63608;49.572;12.348;2022-12-07T10:06:13;23.67;;;14.03;;
37097;SDS011;63608;49.572;12.348;2022-12-07T10:08:19;22.60;;;13.67;;
37097;SDS011;63608;49.572;12.348;2022-12-07T10:10:23;21.30;;;13.40;;
37097;SDS011;63608;49.572;12.348;2022-12-07T10:12:29;17.80;;;12.23;;
37097;SDS011;63608;49.572;12.348;2022-12-07T10:14:33;19.80;;;13.20;;
37097;SDS011;63608;49.572;12.348;2022-12-07T10:16:38;19.40;;;12.97;;
37097;SDS011;63608;49.572;12.348;2022-12-07T10:18:42;22.87;;;13.60;;
37097;SDS011;63608;49.572;12.348;2022-12-07T10:20:47;19.13;;;12.60;;
37097;SDS011;63608;49.572;12.348;2022-12-07T10:22:57;19.53;;;13.57;;
37097;SDS011;63608;49.572;12.348;2022-12-07T10:25:07;22.70;;;13.50;;
37097;SDS011;63608;49.572;12.348;2022-12-07T10:27:33;21.60;;;14.27;;
37097;SDS011;63608;49.572;12.348;2022-12-07T10:29:39;21.37;;;13.53;;
37097;SDS011;63608;49.572;12.348;2022-12-07T10:31:51;21.40;;;13.73;;
37097;SDS011;63608;49.572;12.348;2022-12-07T10:33:59;20.17;;;13.17;;
37097;SDS011;63608;49.572;12.348;2022-12-07T10:38:27;21.27;;;13.20;;
37097;SDS011;63608;49.572;12.348;2022-12-07T10:40:32;18.93;;;13.40;;
37097;SDS011;63608;49.572;12.348;2022-12-07T10:42:37;21.07;;;12.73;;
37097;SDS011;63608;49.572;12.348;2022-12-07T10:44:40;21.47;;;13.43;;
37097;SDS011;63608;49.572;12.348;2022-12-07T10:46:53;21.20;;;14.00;;
37097;SDS011;63608;49.572;12.348;2022-12-07T10:49:11;18.93;;;12.40;;
37097;SDS011;63608;49.572;12.348;2022-12-07T10:51:27;21.50;;;14.10;;
37097;SDS011;63608;49.572;12.348;2022-12-07T10:53:40;18.17;;;12.57;;
37097;SDS011;63608;49.572;12.348;2022-12-07T10:55:56;19.80;;;13.17;;
37097;SDS011;63608;49.572;12.348;2022-12-07T10:58:15;18.10;;;13.17;;
37097;SDS011;63608;49.572;12.348;2022-12-07T11:00:29;20.23;;;13.53;;
37097;SDS011;63608;49.572;12.348;2022-12-07T11:02:55;22.10;;;14.60;;
37097;SDS011;63608;49.572;12.348;2022-12-07T11:05:19;27.40;;;17.00;;
37097;SDS011;63608;49.572;12.348;2022-12-07T11:07:29;22.90;;;16.10;;
37097;SDS011;63608;49.572;12.348;2022-12-07T11:09:52;19.60;;;14.70;;
37097;SDS011;63608;49.572;12.348;2022-12-07T11:12:02;24.70;;;18.73;;
37097;SDS011;63608;49.572;12.348;2022-12-07T11:14:13;19.33;;;13.60;;
37097;SDS011;63608;49.572;12.348;2022-12-07T11:16:24;17.27;;;12.80;;
37097;SDS011;63608;49.572;12.348;2022-12-07T11:18:37;21.37;;;14.37;;
37097;SDS011;63608;49.572;12.348;2022-12-07T11:20:49;19.67;;;14.40;;
37097;SDS011;63608;49.572;12.348;2022-12-07T11:22:55;18.30;;;12.47;;
37097;SDS011;63608;49.572;12.348;2022-12-07T11:25:14;22.10;;;15.37;;
37097;SDS011;63608;49.572;12.348;2022-12-07T11:27:22;26.10;;;16.50;;
37097;SDS011;63608;49.572;12.348;2022-12-07T11:29:37;20.60;;;13.90;;
37097;SDS011;63608;49.572;12.348;2022-12-07T11:31:53;22.37;;;14.13;;
37097;SDS011;63608;49.572;12.348;2022-12-07T11:34:06;21.67;;;12.80;;
37097;SDS011;63608;49.572;12.348;2022-12-07T11:36:17;18.93;;;13.40;;
37097;SDS011;63608;49.572;12.348;2022-12-07T11:38:35;19.20;;;13.60;;
37097;SDS011;63608;49.572;12.348;2022-12-07T11:43:17;21.53;;;13.80;;
37097;SDS011;63608;49.572;12.348;2022-12-07T11:47:47;16.47;;;12.80;;
37097;SDS011;63608;49.572;12.348;2022-12-07T11:49:54;18.60;;;13.50;;
37097;SDS011;63608;49.572;12.348;2022-12-07T11:52:04;18.43;;;12.67;;
37097;SDS011;63608;49.572;12.348;2022-12-07T11:54:11;18.90;;;13.00;;
37097;SDS011;63608;49.572;12.348;2022-12-07T11:56:16;21.03;;;13.20;;
37097;SDS011;63608;49.572;12.348;2022-12-07T11:58:27;18.60;;;12.77;;
37097;SDS011;63608;49.572;12.348;2022-12-07T12:00:37;23.20;;;14.47;;
37097;SDS011;63608;49.572;12.348;2022-12-07T12:05:12;20.53;;;13.20;;
37097;SDS011;63608;49.572;12.348;2022-12-07T12:07:17;18.80;;;12.17;;
37097;SDS011;63608;49.572;12.348;2022-12-07T12:09:23;17.10;;;12.07;;
37097;SDS011;63608;49.572;12.348;2022-12-07T12:11:32;16.10;;;11.90;;
37097;SDS011;63608;49.572;12.348;2022-12-07T12:13:56;15.23;;;11.27;;
37097;SDS011;63608;49.572;12.348;2022-12-07T12:16:09;18.97;;;12.33;;
37097;SDS011;63608;49.572;12.348;2022-12-07T12:20:55;16.83;;;11.50;;
37097;SDS011;63608;49.572;12.348;2022-12-07T12:23:01;17.87;;;11.67;;
37097;SDS011;63608;49.572;12.348;2022-12-07T12:25:12;16.20;;;11.47;;
37097;SDS011;63608;49.572;12.348;2022-12-07T12:27:21;20.33;;;13.50;;
37097;SDS011;63608;49.572;12.348;2022-12-07T12:29:27;22.03;;;14.67;;
37097;SDS011;63608;49.572;12.348;2022-12-07T12:31:33;17.90;;;12.27;;